createdAt,value
2018-12-20T00:00:35.897Z,23.60
2018-12-20T00:01:35.863Z,27.90
2018-12-20T00:02:36.869Z,27.00
2018-12-20T00:03:35.957Z,26.80
2018-12-20T00:04:35.838Z,24.60
2018-12-20T00:05:35.833Z,25.50
2018-12-20T00:06:35.858Z,25.30
2018-12-20T00:07:38.382Z,25.90
2018-12-20T00:08:36.391Z,27.50
2018-12-20T00:09:35.804Z,24.60
2018-12-20T00:10:35.794Z,26.40
2018-12-20T00:11:35.765Z,26.70
2018-12-20T00:12:35.787Z,26.70
2018-12-20T00:13:35.810Z,26.30
2018-12-20T00:14:35.717Z,27.70
2018-12-20T00:15:35.779Z,25.80
2018-12-20T00:16:35.704Z,26.80
2018-12-20T00:17:35.677Z,25.20
2018-12-20T00:18:35.685Z,26.20
2018-12-20T00:19:35.850Z,27.40
2018-12-20T00:20:35.752Z,27.60
2018-12-20T00:21:35.688Z,27.80
2018-12-20T00:22:35.637Z,28.20
2018-12-20T00:23:35.852Z,26.50
2018-12-20T00:24:39.462Z,27.30
2018-12-20T00:25:35.624Z,26.30
2018-12-20T00:26:35.662Z,27.30
2018-12-20T00:27:35.592Z,27.70
2018-12-20T00:28:35.560Z,25.50
2018-12-20T00:29:35.572Z,26.20
2018-12-20T00:30:35.574Z,27.60
2018-12-20T00:31:35.555Z,25.90
2018-12-20T00:32:35.520Z,26.90
2018-12-20T00:33:35.591Z,27.30
2018-12-20T00:34:35.524Z,28.70
2018-12-20T00:35:35.796Z,28.00
2018-12-20T00:36:36.373Z,27.90
2018-12-20T00:37:35.532Z,27.10
2018-12-20T00:38:35.698Z,26.90
2018-12-20T00:39:35.523Z,29.40
2018-12-20T00:40:35.439Z,29.00
2018-12-20T00:41:35.427Z,27.70
2018-12-20T00:42:35.517Z,26.10
2018-12-20T00:43:35.496Z,28.30
2018-12-20T00:44:37.545Z,27.80
2018-12-20T00:45:35.550Z,28.10
2018-12-20T00:46:35.373Z,28.20
2018-12-20T00:47:35.509Z,28.00
2018-12-20T00:48:35.345Z,26.20
2018-12-20T00:49:35.364Z,28.70
2018-12-20T00:50:35.366Z,29.70
2018-12-20T00:51:35.381Z,27.90
2018-12-20T00:52:35.331Z,28.30
2018-12-20T00:53:35.309Z,27.10
2018-12-20T00:54:35.485Z,27.60
2018-12-20T00:55:35.273Z,25.70
2018-12-20T00:56:35.264Z,27.40
2018-12-20T00:57:35.255Z,25.50
2018-12-20T00:58:35.303Z,28.30
2018-12-20T00:59:35.248Z,27.10
2018-12-20T01:00:35.227Z,27.50
2018-12-20T01:01:35.329Z,27.60
2018-12-20T01:02:35.205Z,26.80
2018-12-20T01:03:35.257Z,31.30
2018-12-20T01:04:35.186Z,29.50
2018-12-20T01:05:35.267Z,29.40
2018-12-20T01:06:35.220Z,30.20
2018-12-20T01:07:35.320Z,27.70
2018-12-20T01:08:35.263Z,27.90
2018-12-20T01:09:35.167Z,29.40
2018-12-20T01:10:35.155Z,28.20
2018-12-20T01:11:35.135Z,27.30
2018-12-20T01:12:35.206Z,28.70
2018-12-20T01:13:35.114Z,29.00
2018-12-20T01:14:35.139Z,27.10
2018-12-20T01:15:35.065Z,29.20
2018-12-20T01:16:35.085Z,28.80
2018-12-20T01:17:35.085Z,29.50
2018-12-20T01:18:35.031Z,28.90
2018-12-20T01:19:35.059Z,28.80
2018-12-20T01:20:35.061Z,29.30
2018-12-20T01:21:35.043Z,26.30
2018-12-20T01:22:35.146Z,27.30
2018-12-20T01:23:35.005Z,28.80
2018-12-20T01:24:35.208Z,27.90
2018-12-20T01:25:34.991Z,29.20
2018-12-20T01:26:36.354Z,29.00
2018-12-20T01:27:35.154Z,29.20
2018-12-20T01:28:34.923Z,29.40
2018-12-20T01:29:34.929Z,28.60
2018-12-20T01:30:34.901Z,29.30
2018-12-20T01:31:35.005Z,29.10
2018-12-20T01:32:35.124Z,26.20
2018-12-20T01:33:34.884Z,28.30
2018-12-20T01:34:34.927Z,29.10
2018-12-20T01:35:34.874Z,28.50
2018-12-20T01:36:34.858Z,28.20
2018-12-20T01:37:34.835Z,29.90
2018-12-20T01:38:34.820Z,29.10
2018-12-20T01:39:34.825Z,27.50
2018-12-20T01:40:34.823Z,29.90
2018-12-20T01:41:34.858Z,28.80
2018-12-20T01:42:34.818Z,26.30
2018-12-20T01:43:34.782Z,28.30
2018-12-20T01:44:34.763Z,28.80
2018-12-20T01:45:34.759Z,30.40
2018-12-20T01:46:34.731Z,32.90
2018-12-20T01:47:34.850Z,31.10
2018-12-20T01:48:34.859Z,26.80
2018-12-20T01:49:34.876Z,30.00
2018-12-20T01:50:34.809Z,30.30
2018-12-20T01:51:34.676Z,30.90
2018-12-20T01:52:34.756Z,30.20
2018-12-20T01:53:34.663Z,30.60
2018-12-20T01:54:34.658Z,29.30
2018-12-20T01:55:34.683Z,31.30
2018-12-20T01:56:34.793Z,31.20
2018-12-20T01:57:34.615Z,31.40
2018-12-20T01:58:34.622Z,30.60
2018-12-20T01:59:34.628Z,30.40
2018-12-20T02:00:34.721Z,27.20
2018-12-20T02:01:34.658Z,30.70
2018-12-20T02:02:34.569Z,31.10
2018-12-20T02:03:34.562Z,29.50
2018-12-20T02:04:34.715Z,31.50
2018-12-20T02:05:34.529Z,28.80
2018-12-20T02:06:34.535Z,28.70
2018-12-20T02:07:34.615Z,31.40
2018-12-20T02:08:34.523Z,29.80
2018-12-20T02:09:34.767Z,31.90
2018-12-20T02:10:34.516Z,29.20
2018-12-20T02:11:34.556Z,30.40
2018-12-20T02:12:34.453Z,31.00
2018-12-20T02:13:34.489Z,30.00
2018-12-20T02:14:34.543Z,31.10
2018-12-20T02:15:34.540Z,30.50
2018-12-20T02:16:34.529Z,27.30
2018-12-20T02:17:34.404Z,30.00
2018-12-20T02:18:34.407Z,30.90
2018-12-20T02:19:34.379Z,31.40
2018-12-20T02:20:34.382Z,29.80
2018-12-20T02:21:34.531Z,31.90
2018-12-20T02:22:34.420Z,29.70
2018-12-20T02:23:34.410Z,30.30
2018-12-20T02:24:34.323Z,30.90
2018-12-20T02:25:34.511Z,30.40
2018-12-20T02:26:34.395Z,30.40
2018-12-20T02:27:34.556Z,30.90
2018-12-20T02:28:34.329Z,32.90
2018-12-20T02:29:34.465Z,31.90
2018-12-20T02:30:35.261Z,30.40
2018-12-20T02:31:34.256Z,32.40
2018-12-20T02:32:34.243Z,30.60
2018-12-20T02:33:42.101Z,31.30
2018-12-20T02:34:34.230Z,32.30
2018-12-20T02:35:34.237Z,33.20
2018-12-20T02:36:34.233Z,31.80
2018-12-20T02:37:34.199Z,32.30
2018-12-20T02:38:34.182Z,31.60
2018-12-20T02:39:34.958Z,32.20
2018-12-20T02:40:34.197Z,30.60
2018-12-20T02:41:34.184Z,31.60
2018-12-20T02:42:34.152Z,28.60
2018-12-20T02:43:34.166Z,31.00
2018-12-20T02:44:34.286Z,30.50
2018-12-20T02:45:34.124Z,31.30
2018-12-20T02:46:34.356Z,31.30
2018-12-20T02:47:34.186Z,29.20
2018-12-20T02:48:34.187Z,31.70
2018-12-20T02:49:34.221Z,31.20
2018-12-20T02:50:34.079Z,32.20
2018-12-20T02:51:34.280Z,32.20
2018-12-20T02:52:34.026Z,31.40
2018-12-20T02:53:34.052Z,32.50
2018-12-20T02:54:34.013Z,32.00
2018-12-20T02:55:34.085Z,31.00
2018-12-20T02:56:34.005Z,32.40
2018-12-20T02:57:34.021Z,32.40
2018-12-20T02:58:33.982Z,30.70
2018-12-20T02:59:34.035Z,31.60
2018-12-20T03:00:34.033Z,33.30
2018-12-20T03:01:34.236Z,31.80
2018-12-20T03:02:34.517Z,29.70
2018-12-20T03:03:33.916Z,33.40
2018-12-20T03:04:34.069Z,30.90
2018-12-20T03:05:34.123Z,28.10
2018-12-20T03:06:34.054Z,31.60
2018-12-20T03:07:33.907Z,31.10
2018-12-20T03:08:33.851Z,32.90
2018-12-20T03:09:33.966Z,31.70
2018-12-20T03:10:33.926Z,33.60
2018-12-20T03:11:33.848Z,33.80
2018-12-20T03:12:33.821Z,32.70
2018-12-20T03:13:33.851Z,34.60
2018-12-20T03:14:33.898Z,33.60
2018-12-20T03:15:33.829Z,32.80
2018-12-20T03:16:33.866Z,32.30
2018-12-20T03:17:33.975Z,33.00
2018-12-20T03:18:33.752Z,33.50
2018-12-20T03:19:33.839Z,33.00
2018-12-20T03:20:33.890Z,32.90
2018-12-20T03:21:33.779Z,29.60
2018-12-20T03:22:33.909Z,31.90
2018-12-20T03:23:36.604Z,30.20
2018-12-20T03:24:33.778Z,32.00
2018-12-20T03:25:33.760Z,34.20
2018-12-20T03:26:33.678Z,33.90
2018-12-20T03:28:27.357Z,32.40
2018-12-20T03:29:27.303Z,31.90
2018-12-20T03:30:27.262Z,32.10
2018-12-20T03:31:27.265Z,34.30
2018-12-20T03:32:27.213Z,33.50
2018-12-20T03:33:27.437Z,33.90
2018-12-20T03:34:27.441Z,32.00
2018-12-20T03:35:27.148Z,33.70
2018-12-20T03:36:27.138Z,34.80
2018-12-20T03:37:27.147Z,35.20
2018-12-20T03:38:27.211Z,32.90
2018-12-20T03:39:28.766Z,30.70
2018-12-20T03:40:27.100Z,34.50
2018-12-20T03:41:27.077Z,32.60
2018-12-20T03:42:27.075Z,33.40
2018-12-20T03:43:27.312Z,32.40
2018-12-20T03:44:27.048Z,32.60
2018-12-20T03:45:29.066Z,33.80
2018-12-20T03:46:27.034Z,32.20
2018-12-20T03:47:27.022Z,33.10
2018-12-20T03:48:27.026Z,30.80
2018-12-20T03:49:26.989Z,34.70
2018-12-20T03:50:27.168Z,35.10
2018-12-20T03:51:27.124Z,34.70
2018-12-20T03:52:27.046Z,34.10
2018-12-20T03:53:26.963Z,35.20
2018-12-20T03:54:27.151Z,32.40
2018-12-20T03:55:27.024Z,34.60
2018-12-20T03:56:27.881Z,33.90
2018-12-20T03:57:27.791Z,35.20
2018-12-20T03:58:27.041Z,34.50
2018-12-20T03:59:26.889Z,36.00
2018-12-20T04:00:26.916Z,33.80
2018-12-20T04:01:26.866Z,35.90
2018-12-20T04:02:26.850Z,36.00
2018-12-20T04:03:26.974Z,36.30
2018-12-20T04:04:27.035Z,33.00
2018-12-20T04:05:26.899Z,34.60
2018-12-20T04:06:27.017Z,35.80
2018-12-20T04:07:26.979Z,34.10
2018-12-20T04:08:26.831Z,36.40
2018-12-20T04:09:26.779Z,36.40
2018-12-20T04:10:27.243Z,35.30
2018-12-20T04:11:26.804Z,34.50
2018-12-20T04:12:26.756Z,34.10
2018-12-20T04:13:26.770Z,37.40
2018-12-20T04:14:26.776Z,33.80
2018-12-20T04:15:26.830Z,36.00
2018-12-20T04:16:26.713Z,36.80
2018-12-20T04:17:26.786Z,34.80
2018-12-20T04:18:26.716Z,36.50
2018-12-20T04:19:26.725Z,36.00
2018-12-20T04:20:27.286Z,36.60
2018-12-20T04:21:26.967Z,35.60
2018-12-20T04:22:26.642Z,35.60
2018-12-20T04:23:26.641Z,36.10
2018-12-20T04:24:26.638Z,34.70
2018-12-20T04:25:26.817Z,38.70
2018-12-20T04:26:26.639Z,36.30
2018-12-20T04:27:26.772Z,35.80
2018-12-20T04:28:26.658Z,36.90
2018-12-20T04:30:18.992Z,35.30
2018-12-20T04:31:18.965Z,35.40
2018-12-20T04:32:18.947Z,36.50
2018-12-20T04:33:18.978Z,35.80
2018-12-20T04:34:18.915Z,36.10
2018-12-20T04:35:18.908Z,36.30
2018-12-20T04:36:18.996Z,33.50
2018-12-20T04:37:19.005Z,36.90
2018-12-20T04:38:18.940Z,37.80
2018-12-20T04:39:18.905Z,35.90
2018-12-20T04:40:19.038Z,37.00
2018-12-20T04:41:18.882Z,35.70
2018-12-20T04:42:19.044Z,35.00
2018-12-20T04:43:19.190Z,36.50
2018-12-20T04:44:18.854Z,36.50
2018-12-20T04:45:18.801Z,36.50
2018-12-20T04:46:19.132Z,35.80
2018-12-20T04:47:19.084Z,37.60
2018-12-20T04:48:18.949Z,36.30
2018-12-20T04:49:18.835Z,35.90
2018-12-20T04:50:18.981Z,36.10
2018-12-20T04:51:18.743Z,33.70
2018-12-20T04:52:18.732Z,37.70
2018-12-20T04:53:18.718Z,34.60
2018-12-20T04:54:18.718Z,35.10
2018-12-20T04:55:18.883Z,35.60
2018-12-20T04:56:18.693Z,34.60
2018-12-20T04:57:18.935Z,37.30
2018-12-20T04:58:18.868Z,37.00
2018-12-20T04:59:18.696Z,36.40
2018-12-20T05:00:19.743Z,37.80
2018-12-20T05:01:18.657Z,35.90
2018-12-20T05:02:18.858Z,38.20
2018-12-20T05:03:18.618Z,37.50
2018-12-20T05:04:18.604Z,36.10
2018-12-20T05:05:18.644Z,37.00
2018-12-20T05:06:18.588Z,35.90
2018-12-20T05:07:18.755Z,37.00
2018-12-20T05:08:18.712Z,35.40
2018-12-20T05:09:18.626Z,38.00
2018-12-20T05:10:18.860Z,36.00
2018-12-20T05:11:18.550Z,37.10
2018-12-20T05:12:18.523Z,36.50
2018-12-20T05:13:18.500Z,35.90
2018-12-20T05:14:18.508Z,37.20
2018-12-20T05:15:18.485Z,33.00
2018-12-20T05:16:18.678Z,33.80
2018-12-20T05:17:18.688Z,36.90
2018-12-20T05:18:18.449Z,34.60
2018-12-20T05:19:18.688Z,35.60
2018-12-20T05:20:18.491Z,35.10
2018-12-20T05:21:18.689Z,36.40
2018-12-20T05:22:18.681Z,37.00
2018-12-20T05:23:18.430Z,35.60
2018-12-20T05:24:18.398Z,34.60
2018-12-20T05:25:18.505Z,35.90
2018-12-20T05:26:18.360Z,36.60
2018-12-20T05:27:18.513Z,35.20
2018-12-20T05:28:18.354Z,34.80
2018-12-20T05:29:18.363Z,36.20
2018-12-20T05:30:18.460Z,36.50
2018-12-20T05:31:18.582Z,36.00
2018-12-20T05:32:18.564Z,35.80
2018-12-20T05:33:18.345Z,36.60
2018-12-20T05:34:18.279Z,34.60
2018-12-20T05:35:18.281Z,35.60
2018-12-20T05:36:18.279Z,35.40
2018-12-20T05:37:18.376Z,35.60
2018-12-20T05:38:18.246Z,35.80
2018-12-20T05:39:18.361Z,36.00
2018-12-20T05:40:18.391Z,32.50
2018-12-20T05:41:18.200Z,33.30
2018-12-20T05:42:18.327Z,35.50
2018-12-20T05:43:18.193Z,34.70
2018-12-20T05:44:18.292Z,35.00
2018-12-20T05:45:18.474Z,34.30
2018-12-20T05:46:18.402Z,34.40
2018-12-20T05:47:18.259Z,35.10
2018-12-20T05:48:18.186Z,34.90
2018-12-20T05:49:18.132Z,35.50
2018-12-20T05:50:18.108Z,34.60
2018-12-20T05:51:18.098Z,35.20
2018-12-20T05:52:18.222Z,36.40
2018-12-20T05:53:18.076Z,34.00
2018-12-20T05:54:18.180Z,30.80
2018-12-20T05:55:18.172Z,32.60
2018-12-20T05:56:18.078Z,33.90
2018-12-20T05:57:18.178Z,33.30
2018-12-20T05:58:18.058Z,35.00
2018-12-20T05:59:18.046Z,35.20
2018-12-20T06:00:18.176Z,35.30
2018-12-20T06:01:18.003Z,35.00
2018-12-20T06:02:18.063Z,34.50
2018-12-20T06:03:18.005Z,32.60
2018-12-20T06:04:18.677Z,32.90
2018-12-20T06:05:18.025Z,32.10
2018-12-20T06:06:18.161Z,33.20
2018-12-20T06:07:17.964Z,35.20
2018-12-20T06:08:17.918Z,34.00
2018-12-20T06:09:17.937Z,34.20
2018-12-20T06:10:17.895Z,32.80
2018-12-20T06:11:17.898Z,32.50
2018-12-20T06:12:18.100Z,33.10
2018-12-20T06:13:19.126Z,33.30
2018-12-20T06:14:17.865Z,32.80
2018-12-20T06:15:17.842Z,35.10
2018-12-20T06:16:18.057Z,34.50
2018-12-20T06:17:18.138Z,35.50
2018-12-20T06:18:17.805Z,32.50
2018-12-20T06:19:17.913Z,31.70
2018-12-20T06:20:17.915Z,28.10
2018-12-20T06:21:17.776Z,30.40
2018-12-20T06:22:17.982Z,31.80
2018-12-20T06:23:17.943Z,33.10
2018-12-20T06:24:17.746Z,33.70
2018-12-20T06:26:09.576Z,29.40
2018-12-20T06:27:09.551Z,30.60
2018-12-20T06:28:09.539Z,35.20
2018-12-20T06:29:09.525Z,31.80
2018-12-20T06:30:09.528Z,35.40
2018-12-20T06:31:09.511Z,34.90
2018-12-20T06:32:09.490Z,30.40
2018-12-20T06:33:09.503Z,33.50
2018-12-20T06:34:09.472Z,35.20
2018-12-20T06:35:09.469Z,35.20
2018-12-20T06:36:09.468Z,35.70
2018-12-20T06:37:09.432Z,36.10
2018-12-20T06:38:09.433Z,35.80
2018-12-20T06:39:09.421Z,34.30
2018-12-20T06:40:09.408Z,34.00
2018-12-20T06:41:09.397Z,36.00
2018-12-20T06:42:09.390Z,34.30
2018-12-20T06:43:09.376Z,34.20
2018-12-20T06:44:09.386Z,29.80
2018-12-20T06:45:09.367Z,34.90
2018-12-20T06:46:09.342Z,35.50
2018-12-20T06:47:09.331Z,33.70
2018-12-20T06:48:09.331Z,35.30
2018-12-20T06:49:09.418Z,34.80
2018-12-20T06:50:09.304Z,36.10
2018-12-20T06:51:09.305Z,36.20
2018-12-20T06:52:09.286Z,35.30
2018-12-20T06:53:09.269Z,30.00
2018-12-20T06:54:09.266Z,34.80
2018-12-20T06:55:09.254Z,36.40
2018-12-20T06:56:09.230Z,35.70
2018-12-20T06:57:09.228Z,34.10
2018-12-20T06:58:09.220Z,33.50
2018-12-20T06:59:09.212Z,35.10
2018-12-20T07:00:09.187Z,35.30
2018-12-20T07:01:09.186Z,34.80
2018-12-20T07:02:09.223Z,36.20
2018-12-20T07:03:09.156Z,35.80
2018-12-20T07:04:09.196Z,36.70
2018-12-20T07:05:09.149Z,36.70
2018-12-20T07:06:09.128Z,34.80
2018-12-20T07:07:09.124Z,34.30
2018-12-20T07:08:09.812Z,36.60
2018-12-20T07:09:09.099Z,36.40
2018-12-20T07:10:09.184Z,33.80
2018-12-20T07:11:09.094Z,34.20
2018-12-20T07:12:09.130Z,36.10
2018-12-20T07:13:09.069Z,36.00
2018-12-20T07:14:09.141Z,36.20
2018-12-20T07:15:09.039Z,36.40
2018-12-20T07:16:09.025Z,35.60
2018-12-20T07:17:09.016Z,35.30
2018-12-20T07:18:09.016Z,35.20
2018-12-20T07:19:08.989Z,34.00
2018-12-20T07:20:08.983Z,35.80
2018-12-20T07:21:08.989Z,35.60
2018-12-20T07:22:08.953Z,36.00
2018-12-20T07:23:08.952Z,36.00
2018-12-20T07:24:08.939Z,35.50
2018-12-20T07:25:08.930Z,35.50
2018-12-20T07:26:08.915Z,33.90
2018-12-20T07:27:08.914Z,32.70
2018-12-20T07:28:08.914Z,36.20
2018-12-20T07:29:08.894Z,31.80
2018-12-20T07:30:08.881Z,34.60
2018-12-20T07:31:08.866Z,33.90
2018-12-20T07:32:08.847Z,35.10
2018-12-20T07:33:08.876Z,36.70
2018-12-20T07:34:08.834Z,31.60
2018-12-20T07:35:08.822Z,36.60
2018-12-20T07:36:08.810Z,32.50
2018-12-20T07:37:08.800Z,31.40
2018-12-20T07:38:10.344Z,35.70
2018-12-20T07:39:08.784Z,36.00
2018-12-20T07:40:08.769Z,36.20
2018-12-20T07:41:08.764Z,35.30
2018-12-20T07:42:08.746Z,35.00
2018-12-20T07:43:08.738Z,34.70
2018-12-20T07:44:08.721Z,34.30
2018-12-20T07:45:08.723Z,35.40
2018-12-20T07:46:08.705Z,35.40
2018-12-20T07:47:08.691Z,33.80
2018-12-20T07:48:08.692Z,36.00
2018-12-20T07:49:08.674Z,31.30
2018-12-20T07:50:08.670Z,33.20
2018-12-20T07:51:08.742Z,34.20
2018-12-20T07:52:08.653Z,35.90
2018-12-20T07:53:08.629Z,41.60
2018-12-20T07:54:08.622Z,32.50
2018-12-20T07:55:08.609Z,33.90
2018-12-20T07:56:08.599Z,36.40
2018-12-20T07:57:08.612Z,33.40
2018-12-20T07:58:08.578Z,36.80
2018-12-20T07:59:08.566Z,35.90
2018-12-20T08:00:08.567Z,35.20
2018-12-20T08:01:08.555Z,34.50
2018-12-20T08:02:08.528Z,32.60
2018-12-20T08:03:08.528Z,33.10
2018-12-20T08:04:08.521Z,35.40
2018-12-20T08:05:08.501Z,34.10
2018-12-20T08:06:08.515Z,34.60
2018-12-20T08:07:08.482Z,37.60
2018-12-20T08:08:08.489Z,35.90
2018-12-20T08:09:08.466Z,34.00
2018-12-20T08:10:08.464Z,35.60
2018-12-20T08:11:08.443Z,35.10
2018-12-20T08:12:09.357Z,34.90
2018-12-20T08:13:08.443Z,34.50
2018-12-20T08:14:08.404Z,31.50
2018-12-20T08:15:08.396Z,33.30
2018-12-20T08:16:08.388Z,33.00
2018-12-20T08:17:08.392Z,35.20
2018-12-20T08:18:08.369Z,34.80
2018-12-20T08:19:08.356Z,35.50
2018-12-20T08:20:08.348Z,35.20
2018-12-20T08:21:08.367Z,34.30
2018-12-20T08:22:08.328Z,33.00
2018-12-20T08:23:08.318Z,34.30
2018-12-20T08:24:09.845Z,33.70
2018-12-20T08:25:08.294Z,32.40
2018-12-20T08:26:08.275Z,33.80
2018-12-20T08:27:08.291Z,34.20
2018-12-20T08:28:08.262Z,34.00
2018-12-20T08:29:08.247Z,34.30
2018-12-20T08:30:08.256Z,37.60
2018-12-20T08:31:08.244Z,32.80
2018-12-20T08:32:08.219Z,33.20
2018-12-20T08:33:08.225Z,33.50
2018-12-20T08:34:08.216Z,32.70
2018-12-20T08:35:08.186Z,32.90
2018-12-20T08:36:08.238Z,33.00
2018-12-20T08:37:08.162Z,33.90
2018-12-20T08:38:08.148Z,35.10
2018-12-20T08:39:08.141Z,33.60
2018-12-20T08:40:08.130Z,32.50
2018-12-20T08:41:09.083Z,33.20
2018-12-20T08:42:08.129Z,34.00
2018-12-20T08:43:08.118Z,34.60
2018-12-20T08:44:08.092Z,32.70
2018-12-20T08:45:08.102Z,32.80
2018-12-20T08:46:08.090Z,32.90
2018-12-20T08:47:08.063Z,33.10
2018-12-20T08:48:08.058Z,34.90
2018-12-20T08:49:08.037Z,34.10
2018-12-20T08:50:08.040Z,33.80
2018-12-20T08:51:08.026Z,33.80
2018-12-20T08:52:08.017Z,33.70
2018-12-20T08:53:08.005Z,34.20
2018-12-20T08:54:08.002Z,37.70
2018-12-20T08:55:07.977Z,34.60
2018-12-20T08:56:07.959Z,33.30
2018-12-20T08:57:07.949Z,35.10
2018-12-20T08:58:08.849Z,32.80
2018-12-20T08:59:07.943Z,35.30
2018-12-20T09:00:07.908Z,31.50
2018-12-20T09:01:07.910Z,33.00
2018-12-20T09:02:07.888Z,34.30
2018-12-20T09:03:07.884Z,34.50
2018-12-20T09:04:07.900Z,37.00
2018-12-20T09:05:07.872Z,33.70
2018-12-20T09:06:07.862Z,33.50
2018-12-20T09:07:07.849Z,36.00
2018-12-20T09:08:07.830Z,34.20
2018-12-20T09:09:07.836Z,33.80
2018-12-20T09:10:07.831Z,28.60
2018-12-20T09:11:07.806Z,32.40
2018-12-20T09:12:08.361Z,31.50
2018-12-20T09:13:09.713Z,32.40
2018-12-20T09:14:08.320Z,33.90
2018-12-20T09:15:07.767Z,35.00
2018-12-20T09:16:08.352Z,34.30
2018-12-20T09:17:07.742Z,33.00
2018-12-20T09:18:07.739Z,33.70
2018-12-20T09:19:07.724Z,34.20
2018-12-20T09:20:09.350Z,36.40
2018-12-20T09:21:08.688Z,45.50
2018-12-20T09:22:07.685Z,40.40
2018-12-20T09:23:07.705Z,33.90
2018-12-20T09:24:07.669Z,33.50
2018-12-20T09:25:07.684Z,32.40
2018-12-20T09:26:08.378Z,33.80
2018-12-20T09:27:07.648Z,32.80
2018-12-20T09:28:07.634Z,33.50
2018-12-20T09:29:07.634Z,34.80
2018-12-20T09:30:07.614Z,33.30
2018-12-20T09:31:07.588Z,32.90
2018-12-20T09:32:07.574Z,32.80
2018-12-20T09:33:07.571Z,33.80
2018-12-20T09:34:07.569Z,33.40
2018-12-20T09:35:07.573Z,33.40
2018-12-20T09:36:07.536Z,33.20
2018-12-20T09:37:07.529Z,32.60
2018-12-20T09:38:07.517Z,32.20
2018-12-20T09:39:07.503Z,32.10
2018-12-20T09:40:07.522Z,32.80
2018-12-20T09:41:07.509Z,32.10
2018-12-20T09:42:07.482Z,32.10
2018-12-20T09:43:07.469Z,32.20
2018-12-20T09:44:07.453Z,33.20
2018-12-20T09:45:07.445Z,32.90
2018-12-20T09:46:07.494Z,34.60
2018-12-20T09:47:11.585Z,31.90
2018-12-20T09:48:07.410Z,33.40
2018-12-20T09:49:07.396Z,32.20
2018-12-20T09:50:07.383Z,35.10
2018-12-20T09:51:08.346Z,34.70
2018-12-20T09:52:07.380Z,34.20
2018-12-20T09:53:07.353Z,32.20
2018-12-20T09:54:07.339Z,34.80
2018-12-20T09:55:07.332Z,34.60
2018-12-20T09:56:07.314Z,34.80
2018-12-20T09:57:07.317Z,33.80
2018-12-20T09:58:07.299Z,35.90
2018-12-20T09:59:07.288Z,37.00
2018-12-20T10:00:07.278Z,34.80
2018-12-20T10:01:07.264Z,35.30
2018-12-20T10:02:07.271Z,33.70
2018-12-20T10:03:07.255Z,34.90
2018-12-20T10:04:07.241Z,32.00
2018-12-20T10:05:07.218Z,32.20
2018-12-20T10:06:07.218Z,35.20
2018-12-20T10:07:07.207Z,36.50
2018-12-20T10:08:07.197Z,34.20
2018-12-20T10:09:07.194Z,32.50
2018-12-20T10:10:07.174Z,31.60
2018-12-20T10:11:07.173Z,29.30
2018-12-20T10:12:07.184Z,29.90
2018-12-20T10:13:07.144Z,33.90
2018-12-20T10:14:07.134Z,28.10
2018-12-20T10:15:07.130Z,29.30
2018-12-20T10:16:07.108Z,32.00
2018-12-20T10:17:07.132Z,31.00
2018-12-20T10:18:07.092Z,33.50
2018-12-20T10:19:08.875Z,31.40
2018-12-20T10:20:07.065Z,33.70
2018-12-20T10:21:08.848Z,32.40
2018-12-20T10:22:07.045Z,31.30
2018-12-20T10:23:07.057Z,34.20
2018-12-20T10:24:07.021Z,34.70
2018-12-20T10:25:07.003Z,32.20
2018-12-20T10:26:06.997Z,32.80
2018-12-20T10:27:06.990Z,30.80
2018-12-20T10:28:06.979Z,32.70
2018-12-20T10:29:06.982Z,32.80
2018-12-20T10:30:06.960Z,30.00
2018-12-20T10:31:06.947Z,31.00
2018-12-20T10:32:06.933Z,31.90
2018-12-20T10:33:06.922Z,31.90
2018-12-20T10:34:06.934Z,31.00
2018-12-20T10:35:06.896Z,31.30
2018-12-20T10:36:06.891Z,30.80
2018-12-20T10:37:06.886Z,31.60
2018-12-20T10:38:06.873Z,32.20
2018-12-20T10:39:06.864Z,33.30
2018-12-20T10:40:06.848Z,33.00
2018-12-20T10:41:07.860Z,32.00
2018-12-20T10:42:06.863Z,32.50
2018-12-20T10:43:06.935Z,33.20
2018-12-20T10:44:06.821Z,31.70
2018-12-20T10:45:06.796Z,32.60
2018-12-20T10:46:06.796Z,32.70
2018-12-20T10:47:06.796Z,33.80
2018-12-20T10:48:06.765Z,32.00
2018-12-20T10:49:07.747Z,32.00
2018-12-20T10:50:06.742Z,33.90
2018-12-20T10:51:06.740Z,32.00
2018-12-20T10:52:06.731Z,32.50
2018-12-20T10:53:06.715Z,32.20
2018-12-20T10:54:06.707Z,33.90
2018-12-20T10:55:06.694Z,30.20
2018-12-20T10:56:06.682Z,32.70
2018-12-20T10:57:06.699Z,32.10
2018-12-20T10:58:06.670Z,33.20
2018-12-20T10:59:06.658Z,34.10
2018-12-20T11:00:06.726Z,32.40
2018-12-20T11:01:06.646Z,36.30
2018-12-20T11:02:06.619Z,32.20
2018-12-20T11:03:06.605Z,34.20
2018-12-20T11:04:06.601Z,33.10
2018-12-20T11:05:06.627Z,35.10
2018-12-20T11:06:06.576Z,32.70
2018-12-20T11:07:08.467Z,33.70
2018-12-20T11:08:06.545Z,37.80
2018-12-20T11:09:06.582Z,32.30
2018-12-20T11:10:06.551Z,32.40
2018-12-20T11:11:06.514Z,27.30
2018-12-20T11:12:06.505Z,32.30
2018-12-20T11:13:06.493Z,30.90
2018-12-20T11:14:06.506Z,30.70
2018-12-20T11:15:06.483Z,33.80
2018-12-20T11:16:06.473Z,31.80
2018-12-20T11:17:06.469Z,32.40
2018-12-20T11:18:06.442Z,30.60
2018-12-20T11:19:06.447Z,30.90
2018-12-20T11:20:06.440Z,31.00
2018-12-20T11:21:06.419Z,32.30
2018-12-20T11:22:06.408Z,29.80
2018-12-20T11:23:06.391Z,32.10
2018-12-20T11:24:06.396Z,30.50
2018-12-20T11:25:06.395Z,31.50
2018-12-20T11:26:06.369Z,30.00
2018-12-20T11:27:06.352Z,30.60
2018-12-20T11:28:06.357Z,31.50
2018-12-20T11:29:06.336Z,33.30
2018-12-20T11:30:06.328Z,31.00
2018-12-20T11:31:06.347Z,28.80
2018-12-20T11:32:06.294Z,31.20
2018-12-20T11:33:06.306Z,31.60
2018-12-20T11:34:06.287Z,31.10
2018-12-20T11:35:06.263Z,29.20
2018-12-20T11:36:06.248Z,31.20
2018-12-20T11:37:06.243Z,30.60
2018-12-20T11:38:06.231Z,31.00
2018-12-20T11:39:08.470Z,31.30
2018-12-20T11:40:06.218Z,30.10
2018-12-20T11:41:06.203Z,29.70
2018-12-20T11:42:06.192Z,31.20
2018-12-20T11:43:06.186Z,30.90
2018-12-20T11:44:06.169Z,30.70
2018-12-20T11:45:06.164Z,29.90
2018-12-20T11:46:06.144Z,30.90
2018-12-20T11:47:06.141Z,28.80
2018-12-20T11:48:06.129Z,30.10
2018-12-20T11:49:06.126Z,30.70
2018-12-20T11:50:06.121Z,29.70
2018-12-20T11:51:06.095Z,30.90
2018-12-20T11:52:06.084Z,29.20
2018-12-20T11:53:06.072Z,29.10
2018-12-20T11:54:06.058Z,28.40
2018-12-20T11:55:07.870Z,30.30
2018-12-20T11:56:06.046Z,30.40
2018-12-20T11:57:06.036Z,30.10
2018-12-20T11:58:06.034Z,30.10
2018-12-20T11:59:06.007Z,30.20
2018-12-20T12:00:06.033Z,30.90
2018-12-20T12:01:05.997Z,29.40
2018-12-20T12:02:05.978Z,29.70
2018-12-20T12:03:06.013Z,29.70
2018-12-20T12:04:05.972Z,30.00
2018-12-20T12:05:05.946Z,29.50
2018-12-20T12:06:05.925Z,29.70
2018-12-20T12:07:05.924Z,29.10
2018-12-20T12:08:06.838Z,28.50
2018-12-20T12:09:05.905Z,30.30
2018-12-20T12:10:06.835Z,28.70
2018-12-20T12:11:58.303Z,29.40
2018-12-20T12:12:58.287Z,29.30
2018-12-20T12:13:58.307Z,29.60
2018-12-20T12:14:58.269Z,29.40
2018-12-20T12:15:58.277Z,29.20
2018-12-20T12:16:58.254Z,29.50
2018-12-20T12:17:58.231Z,29.60
2018-12-20T12:18:58.221Z,29.30
2018-12-20T12:19:58.217Z,28.20
2018-12-20T12:20:58.209Z,28.10
2018-12-20T12:21:58.189Z,29.50
2018-12-20T12:22:58.177Z,28.60
2018-12-20T12:23:58.180Z,28.50
2018-12-20T12:24:58.162Z,29.00
2018-12-20T12:25:58.156Z,28.30
2018-12-20T12:26:58.162Z,29.50
2018-12-20T12:27:58.131Z,29.50
2018-12-20T12:28:58.114Z,30.10
2018-12-20T12:29:58.108Z,28.80
2018-12-20T12:30:58.093Z,27.80
2018-12-20T12:31:58.077Z,28.30
2018-12-20T12:32:58.072Z,29.00
2018-12-20T12:33:58.062Z,28.00
2018-12-20T12:34:58.046Z,29.80
2018-12-20T12:35:58.035Z,29.30
2018-12-20T12:36:58.027Z,29.40
2018-12-20T12:37:58.008Z,30.70
2018-12-20T12:38:58.010Z,30.30
2018-12-20T12:39:57.999Z,33.30
2018-12-20T12:40:57.984Z,31.30
2018-12-20T12:41:57.972Z,31.60
2018-12-20T12:42:57.953Z,31.10
2018-12-20T12:43:57.952Z,29.40
2018-12-20T12:44:57.942Z,27.70
2018-12-20T12:45:57.927Z,28.20
2018-12-20T12:46:57.952Z,28.30
2018-12-20T12:48:03.237Z,29.00
2018-12-20T12:48:58.903Z,27.30
2018-12-20T12:49:57.919Z,27.50
2018-12-20T12:50:57.871Z,27.90
2018-12-20T12:51:57.866Z,28.20
2018-12-20T12:52:59.489Z,28.90
2018-12-20T12:53:57.844Z,27.00
2018-12-20T12:54:57.831Z,25.20
2018-12-20T12:55:57.834Z,27.10